Time;durP1;ratioP1;P1;durP2;ratioP2;P2;SDS_P1;SDS_P2;PMS_P1;PMS_P2;Temp;Humidity;BMP_temperature;BMP_pressure;BME280_temperature;BME280_humidity;BME280_pressure;Samples;Min_cycle;Max_cycle;Signal;HPM_P1;HPM_P2
2021/08/01 00:01:06;;;;;;;2.57;2.10;;;21.50;99.90;;;;;;4975684;28;20547;-84
2021/08/01 00:03:34;;;;;;;2.47;1.70;;;21.40;99.90;;;;;;4973009;28;20468;-82
2021/08/01 00:06:13;;;;;;;2.70;2.30;;;21.30;99.90;;;;;;4968661;28;21191;-84
2021/08/01 00:08:41;;;;;;;4.60;3.53;;;21.30;99.90;;;;;;4977223;28;20506;-83
2021/08/01 00:11:11;;;;;;;2.13;1.60;;;21.30;99.90;;;;;;4983934;28;20479;-84
2021/08/01 00:13:39;;;;;;;2.20;2.00;;;21.30;99.90;;;;;;4995490;28;20442;-84
2021/08/01 00:16:08;;;;;;;3.83;2.00;;;21.30;99.90;;;;;;4985893;28;20454;-85
2021/08/01 00:18:36;;;;;;;2.87;2.60;;;21.20;99.90;;;;;;4994411;28;20451;-84
2021/08/01 00:21:05;;;;;;;2.23;2.03;;;21.20;99.90;;;;;;4986991;28;20479;-84
2021/08/01 00:23:34;;;;;;;3.83;2.13;;;21.20;99.90;;;;;;4992706;28;20460;-84
2021/08/01 00:26:02;;;;;;;2.63;2.43;;;21.20;99.90;;;;;;4978702;28;20454;-84
2021/08/01 00:28:32;;;;;;;3.47;2.27;;;21.20;1.00;;;;;;4980373;28;20517;-83
2021/08/01 00:31:00;;;;;;;3.40;2.30;;;21.20;99.90;;;;;;4973820;28;20860;-83
2021/08/01 00:33:29;;;;;;;2.30;2.10;;;21.20;99.90;;;;;;4988441;28;20455;-84
2021/08/01 00:35:57;;;;;;;2.80;2.40;;;21.20;99.90;;;;;;4973880;28;21112;-83
2021/08/01 00:38:25;;;;;;;2.57;2.37;;;21.20;99.90;;;;;;4975865;28;20499;-83
2021/08/01 00:40:53;;;;;;;3.27;2.00;;;21.10;1.00;;;;;;4975288;28;20480;-84
2021/08/01 00:43:21;;;;;;;3.63;2.00;;;21.10;1.00;;;;;;4976968;28;20678;-83
2021/08/01 00:45:52;;;;;;;2.03;1.83;;;21.10;1.00;;;;;;4980794;28;20525;-82
2021/08/01 00:48:23;;;;;;;3.63;2.20;;;21.00;1.00;;;;;;4980785;28;20566;-82
2021/08/01 00:50:51;;;;;;;3.10;2.23;;;21.00;1.00;;;;;;4973488;28;20475;-83
2021/08/01 00:53:19;;;;;;;2.37;2.10;;;21.00;1.00;;;;;;4993099;28;20958;-83
2021/08/01 00:55:47;;;;;;;2.53;2.23;;;20.80;1.00;;;;;;4976252;28;20538;-83
2021/08/01 00:58:15;;;;;;;2.70;2.47;;;20.80;1.00;;;;;;4975484;28;21234;-85
2021/08/01 01:03:53;;;;;;;2.40;2.20;;;20.60;1.00;;;;;;4967664;28;20557;-84
2021/08/01 01:06:29;;;;;;;2.07;1.97;;;20.60;98.00;;;;;;4973320;28;20868;-83
2021/08/01 01:09:02;;;;;;;2.50;2.30;;;20.60;99.90;;;;;;4976135;28;20450;-84
2021/08/01 01:11:35;;;;;;;2.70;1.87;;;20.50;1.00;;;;;;4988864;28;20471;-85
2021/08/01 01:14:04;;;;;;;2.33;1.90;;;20.40;97.10;;;;;;4988084;28;20463;-84
2021/08/01 01:16:40;;;;;;;3.20;2.30;;;20.40;45.80;;;;;;4979735;28;20954;-84
2021/08/01 01:19:14;;;;;;;5.27;2.37;;;20.40;78.20;;;;;;4973035;28;20807;-84
2021/08/01 01:21:52;;;;;;;2.13;1.80;;;20.50;6.70;;;;;;4971923;28;20837;-84
2021/08/01 01:24:25;;;;;;;2.60;2.40;;;20.40;1.00;;;;;;4979334;28;20513;-85
2021/08/01 01:27:04;;;;;;;2.70;2.03;;;20.30;27.20;;;;;;4968954;28;20513;-84
2021/08/01 01:29:39;;;;;;;2.50;2.30;;;20.30;1.00;;;;;;4954355;28;20448;-84
2021/08/01 01:32:11;;;;;;;2.87;2.00;;;20.30;1.00;;;;;;4984314;28;20821;-83
2021/08/01 01:34:57;;;;;;;3.33;2.53;;;20.30;1.00;;;;;;4990909;28;20458;-84
2021/08/01 01:37:29;;;;;;;3.90;2.07;;;20.40;1.00;;;;;;4978799;28;20455;-83
2021/08/01 01:39:59;;;;;;;3.37;2.40;;;20.40;1.00;;;;;;4971292;28;20494;-84
2021/08/01 01:42:29;;;;;;;2.67;2.30;;;20.40;1.00;;;;;;4981312;28;20505;-84
2021/08/01 01:44:58;;;;;;;1.93;1.83;;;20.40;1.00;;;;;;4977573;28;20463;-84
2021/08/01 01:47:27;;;;;;;3.47;1.87;;;20.30;1.00;;;;;;4971189;28;20487;-84
2021/08/01 01:49:58;;;;;;;3.40;2.17;;;20.30;1.00;;;;;;4983189;28;20539;-84
2021/08/01 01:52:30;;;;;;;2.10;1.90;;;20.30;1.00;;;;;;4973027;28;20455;-84
2021/08/01 01:54:59;;;;;;;2.90;2.10;;;20.30;1.00;;;;;;4973213;28;20466;-84
2021/08/01 01:57:28;;;;;;;4.73;2.37;;;20.20;1.00;;;;;;4974228;28;20452;-83
2021/08/01 01:59:56;;;;;;;3.27;1.80;;;20.20;1.00;;;;;;4974420;28;20585;-83
2021/08/01 02:02:24;;;;;;;2.07;1.60;;;20.20;1.00;;;;;;4971793;28;20978;-84
2021/08/01 02:04:52;;;;;;;2.80;1.97;;;20.20;1.00;;;;;;4973611;28;20452;-83
2021/08/01 02:07:21;;;;;;;2.30;2.10;;;20.20;19.60;;;;;;4974169;28;20511;-84
2021/08/01 02:10:03;;;;;;;2.10;2.00;;;20.20;1.00;;;;;;4971942;28;20471;-84
2021/08/01 02:12:36;;;;;;;3.40;2.47;;;20.10;1.00;;;;;;4981510;28;20894;-84
2021/08/01 02:15:08;;;;;;;2.10;2.00;;;20.20;62.90;;;;;;4971401;28;20463;-85
2021/08/01 02:17:44;;;;;;;1.87;1.77;;;20.20;59.60;;;;;;4977850;28;20447;-83
2021/08/01 02:20:14;;;;;;;2.00;1.90;;;20.20;24.30;;;;;;4956346;28;20485;-82
2021/08/01 02:22:43;;;;;;;1.90;1.80;;;20.10;1.00;;;;;;4972907;28;20428;-84
2021/08/01 02:25:14;;;;;;;2.80;1.83;;;20.10;36.30;;;;;;4975603;28;22377;-85
2021/08/01 02:27:43;;;;;;;2.27;1.80;;;20.10;98.90;;;;;;4974325;28;20533;-84
2021/08/01 02:30:13;;;;;;;3.20;2.17;;;20.20;99.90;;;;;;4972503;28;20493;-83
2021/08/01 02:32:42;;;;;;;5.00;2.57;;;20.10;9.60;;;;;;4958134;28;20447;-85
2021/08/01 02:35:11;;;;;;;2.23;2.10;;;20.10;99.90;;;;;;4969704;28;20542;-84
2021/08/01 02:37:40;;;;;;;2.50;2.30;;;20.00;99.90;;;;;;4974992;28;20467;-84
2021/08/01 02:40:10;;;;;;;2.80;2.20;;;20.10;99.90;;;;;;4972372;28;21039;-84
2021/08/01 02:42:41;;;;;;;2.97;2.00;;;20.10;99.90;;;;;;4971077;28;20447;-84
2021/08/01 02:45:11;;;;;;;2.37;2.00;;;20.10;99.90;;;;;;4976014;28;21008;-84
2021/08/01 02:47:41;;;;;;;2.60;2.13;;;20.10;99.90;;;;;;4975378;28;20467;-83
2021/08/01 02:50:11;;;;;;;2.40;2.03;;;20.10;73.80;;;;;;4987916;28;21044;-84
2021/08/01 02:52:43;;;;;;;3.67;2.30;;;20.20;93.30;;;;;;4972508;28;20456;-81
2021/08/01 02:55:13;;;;;;;2.40;2.20;;;20.30;62.30;;;;;;4959353;28;20517;-83
2021/08/01 02:57:47;;;;;;;2.60;2.20;;;20.30;99.90;;;;;;4987216;28;20451;-83
2021/08/01 03:00:16;;;;;;;4.87;2.10;;;20.20;99.90;;;;;;4973072;28;20505;-83
2021/08/01 03:02:47;;;;;;;2.53;2.33;;;20.20;92.90;;;;;;4978374;28;20462;-82
2021/08/01 03:05:17;;;;;;;3.53;2.20;;;20.10;93.60;;;;;;4971797;28;21292;-84
2021/08/01 03:07:46;;;;;;;3.40;2.10;;;20.10;99.90;;;;;;4972989;28;20830;-84
2021/08/01 03:10:15;;;;;;;2.53;1.60;;;20.10;58.60;;;;;;4972061;28;21072;-84
2021/08/01 03:12:45;;;;;;;3.03;2.03;;;20.00;99.90;;;;;;4972718;28;20506;-83
2021/08/01 03:15:14;;;;;;;3.73;2.00;;;20.00;95.00;;;;;;4985384;28;20486;-84
2021/08/01 03:17:42;;;;;;;4.93;2.10;;;19.90;99.90;;;;;;4976827;28;20471;-83
2021/08/01 03:20:11;;;;;;;2.73;2.23;;;19.80;99.90;;;;;;4969358;28;20545;-84
2021/08/01 03:22:39;;;;;;;3.80;1.90;;;19.80;99.90;;;;;;4974665;28;20463;-83
2021/08/01 03:25:08;;;;;;;2.60;2.37;;;19.80;99.90;;;;;;4971930;28;20981;-83
2021/08/01 03:27:36;;;;;;;4.43;2.20;;;19.80;99.90;;;;;;4990601;28;20450;-83
2021/08/01 03:30:07;;;;;;;1.87;1.77;;;19.80;99.90;;;;;;4986624;28;20493;-83
2021/08/01 03:32:35;;;;;;;2.20;2.00;;;19.70;99.90;;;;;;4971259;28;20451;-83
2021/08/01 03:35:04;;;;;;;2.00;1.90;;;19.80;99.90;;;;;;4973545;28;20487;-83
2021/08/01 03:37:32;;;;;;;2.60;2.10;;;19.80;99.90;;;;;;4981983;28;20458;-83
2021/08/01 03:40:00;;;;;;;4.27;2.97;;;19.80;99.90;;;;;;4973333;28;21283;-84
2021/08/01 03:42:28;;;;;;;2.33;2.13;;;19.60;99.90;;;;;;4989841;28;20486;-83
2021/08/01 03:44:56;;;;;;;4.97;2.50;;;19.50;1.00;;;;;;4975723;28;20505;-84
2021/08/01 03:47:26;;;;;;;2.43;2.23;;;19.50;1.00;;;;;;4985567;28;20515;-84
2021/08/01 03:49:54;;;;;;;3.43;2.90;;;19.50;1.00;;;;;;4974105;28;20515;-84
2021/08/01 03:52:22;;;;;;;2.67;2.23;;;19.40;1.00;;;;;;4986601;28;20872;-82
2021/08/01 03:54:52;;;;;;;4.40;2.33;;;19.30;50.20;;;;;;4976778;28;20490;-83
2021/08/01 03:57:20;;;;;;;2.80;2.60;;;19.30;99.90;;;;;;4975524;28;20446;-83
2021/08/01 03:59:48;;;;;;;2.70;2.37;;;19.30;99.90;;;;;;4988912;28;20451;-84
2021/08/01 04:02:16;;;;;;;2.47;2.27;;;19.20;99.90;;;;;;4976556;28;20458;-84
2021/08/01 04:04:46;;;;;;;5.20;2.17;;;19.20;99.90;;;;;;4973393;28;20481;-83
2021/08/01 04:07:14;;;;;;;2.10;2.00;;;19.00;99.90;;;;;;4984621;28;20471;-84
2021/08/01 04:09:42;;;;;;;3.67;2.90;;;19.10;99.90;;;;;;4975712;28;20479;-83
2021/08/01 04:12:10;;;;;;;4.33;2.23;;;19.00;99.90;;;;;;4981860;28;20505;-84
2021/08/01 04:14:38;;;;;;;2.53;2.10;;;19.00;1.00;;;;;;4984396;28;20476;-84
2021/08/01 04:17:09;;;;;;;2.77;2.53;;;19.00;99.90;;;;;;4978316;28;20518;-84
2021/08/01 04:19:37;;;;;;;2.40;2.20;;;19.00;1.00;;;;;;4976923;28;20531;-84
2021/08/01 04:22:06;;;;;;;2.80;2.60;;;19.00;1.00;;;;;;4985018;28;20459;-83
2021/08/01 04:24:34;;;;;;;3.23;1.90;;;18.90;1.00;;;;;;4974513;28;20447;-83
2021/08/01 04:27:03;;;;;;;4.97;2.67;;;18.80;1.00;;;;;;4974048;28;20474;-83
2021/08/01 04:29:32;;;;;;;3.20;2.60;;;18.80;1.00;;;;;;4977159;28;20465;-84
2021/08/01 04:32:00;;;;;;;5.60;2.30;;;18.60;99.90;;;;;;4988191;28;20537;-83
2021/08/01 04:34:28;;;;;;;3.57;2.13;;;18.70;99.90;;;;;;4976430;28;20483;-84
2021/08/01 04:36:57;;;;;;;3.73;2.07;;;18.70;99.90;;;;;;4975313;28;21057;-84
2021/08/01 04:39:26;;;;;;;2.30;2.10;;;18.70;1.00;;;;;;4994294;28;20540;-84
2021/08/01 04:41:54;;;;;;;2.87;2.40;;;18.70;99.90;;;;;;4979140;28;20466;-83
2021/08/01 04:44:22;;;;;;;2.30;2.10;;;18.80;1.00;;;;;;4974791;28;21141;-84
2021/08/01 04:46:50;;;;;;;3.90;2.07;;;18.80;99.90;;;;;;4971881;28;20493;-85
2021/08/01 04:49:18;;;;;;;1.90;1.80;;;18.80;1.00;;;;;;4984006;28;20479;-84
2021/08/01 04:51:47;;;;;;;4.30;2.00;;;18.90;99.90;;;;;;4973671;28;20471;-84
2021/08/01 04:54:15;;;;;;;2.57;1.90;;;18.90;99.90;;;;;;4979337;28;20463;-84
2021/08/01 04:56:47;;;;;;;2.40;2.20;;;18.90;1.00;;;;;;4989048;28;20534;-84
2021/08/01 04:59:17;;;;;;;2.43;1.80;;;18.70;1.00;;;;;;4986255;28;20541;-84
2021/08/01 05:01:47;;;;;;;2.17;1.97;;;18.70;1.00;;;;;;4973559;28;20481;-85
2021/08/01 05:04:16;;;;;;;2.87;2.00;;;18.70;1.00;;;;;;4979943;28;20442;-84
2021/08/01 05:06:44;;;;;;;5.30;1.80;;;18.90;1.00;;;;;;4986853;28;20455;-83
2021/08/01 05:09:12;;;;;;;2.10;1.90;;;18.90;1.00;;;;;;4961546;28;20467;-84
2021/08/01 05:11:40;;;;;;;2.00;1.80;;;19.10;99.90;;;;;;4986875;28;20479;-84
2021/08/01 05:14:10;;;;;;;2.33;1.80;;;19.20;66.80;;;;;;4974443;28;20458;-84
2021/08/01 05:16:38;;;;;;;1.93;1.83;;;19.20;1.00;;;;;;4968198;28;20475;-85
2021/08/01 05:19:06;;;;;;;2.17;1.93;;;19.40;1.00;;;;;;4974141;28;21013;-84
2021/08/01 05:21:35;;;;;;;2.90;1.70;;;19.50;1.00;;;;;;4974280;28;20475;-84
2021/08/01 05:24:03;;;;;;;2.13;1.93;;;19.60;99.90;;;;;;4975136;28;20459;-84
2021/08/01 05:26:31;;;;;;;3.30;2.00;;;19.60;99.90;;;;;;4987079;28;20450;-84
2021/08/01 05:28:59;;;;;;;2.47;1.77;;;19.60;99.90;;;;;;4977840;28;20443;-84
2021/08/01 05:31:29;;;;;;;2.00;1.90;;;19.70;99.90;;;;;;4970388;28;20514;-83
2021/08/01 05:33:58;;;;;;;1.80;1.70;;;19.60;1.00;;;;;;4973862;28;20463;-83
2021/08/01 05:36:26;;;;;;;2.83;2.40;;;19.40;1.00;;;;;;4974496;28;20466;-83
2021/08/01 05:38:54;;;;;;;2.33;2.13;;;19.40;91.20;;;;;;4987515;28;20462;-83
2021/08/01 05:41:24;;;;;;;1.93;1.83;;;19.40;99.90;;;;;;4972283;28;21014;-84
2021/08/01 05:43:53;;;;;;;1.80;1.70;;;19.30;16.00;;;;;;4991772;28;20455;-84
2021/08/01 05:46:21;;;;;;;2.93;2.63;;;19.30;99.90;;;;;;4981653;28;20470;-83
2021/08/01 05:48:51;;;;;;;2.60;2.00;;;19.30;99.90;;;;;;4981875;28;20454;-83
2021/08/01 05:51:20;;;;;;;2.10;1.80;;;19.30;99.90;;;;;;4971516;28;20482;-83
2021/08/01 05:53:48;;;;;;;2.03;1.93;;;19.20;23.60;;;;;;4988414;28;20498;-84
2021/08/01 05:56:16;;;;;;;2.00;1.90;;;19.20;99.90;;;;;;4973330;28;20459;-82
2021/08/01 05:58:44;;;;;;;2.13;2.00;;;19.10;99.90;;;;;;4976254;28;20959;-83
2021/08/01 06:01:13;;;;;;;5.33;2.13;;;19.10;99.90;;;;;;4974606;28;21032;-82
2021/08/01 06:03:43;;;;;;;2.73;2.53;;;19.20;99.90;;;;;;4969789;28;20443;-82
2021/08/01 06:06:14;;;;;;;2.47;2.17;;;19.30;99.90;;;;;;4972897;28;20470;-84
2021/08/01 06:08:44;;;;;;;2.57;2.10;;;19.30;99.90;;;;;;4979364;28;20503;-83
2021/08/01 06:11:12;;;;;;;2.13;1.93;;;19.30;99.90;;;;;;4985200;28;20997;-83
2021/08/01 06:13:41;;;;;;;2.03;1.83;;;19.20;97.80;;;;;;4982404;28;20459;-81
2021/08/01 06:16:10;;;;;;;2.67;2.47;;;19.20;1.00;;;;;;4972049;28;20455;-81
2021/08/01 06:18:41;;;;;;;2.20;2.10;;;19.30;99.90;;;;;;4974127;28;20458;-81
2021/08/01 06:21:13;;;;;;;2.50;1.63;;;19.40;99.90;;;;;;4973253;28;20525;-82
2021/08/01 06:23:44;;;;;;;2.80;2.57;;;19.50;95.40;;;;;;4968698;28;20458;-81
2021/08/01 06:26:13;;;;;;;3.00;1.50;;;19.50;22.40;;;;;;4977903;28;20474;-81
2021/08/01 06:28:42;;;;;;;2.47;1.70;;;19.60;9.60;;;;;;4973335;28;20454;-81
2021/08/01 06:31:10;;;;;;;2.80;2.20;;;19.60;1.00;;;;;;4987912;28;20538;-83
2021/08/01 06:33:39;;;;;;;2.60;1.97;;;19.60;1.00;;;;;;4973009;28;20546;-83
2021/08/01 06:36:09;;;;;;;3.93;2.67;;;19.80;1.00;;;;;;4972456;28;20459;-81
2021/08/01 06:38:37;;;;;;;2.30;2.10;;;19.70;1.00;;;;;;4975111;28;20574;-81
2021/08/01 06:41:07;;;;;;;3.03;2.73;;;19.70;1.00;;;;;;4973170;28;20578;-80
2021/08/01 06:43:36;;;;;;;4.00;2.23;;;19.80;15.40;;;;;;4972314;28;20486;-81
2021/08/01 06:46:04;;;;;;;4.80;2.73;;;19.80;1.00;;;;;;4971290;28;20447;-81
2021/08/01 06:48:33;;;;;;;2.97;2.20;;;19.70;1.00;;;;;;4973445;28;20451;-82
2021/08/01 06:51:02;;;;;;;5.00;2.13;;;19.80;1.00;;;;;;4988208;28;20486;-81
2021/08/01 06:53:30;;;;;;;2.63;2.43;;;19.80;99.90;;;;;;4983029;28;20456;-81
2021/08/01 06:55:58;;;;;;;2.30;2.10;;;19.90;96.60;;;;;;4972636;28;20878;-80
2021/08/01 06:58:28;;;;;;;2.40;2.03;;;19.90;23.50;;;;;;4972999;28;20538;-81
2021/08/01 07:00:56;;;;;;;2.30;2.10;;;19.90;99.90;;;;;;4972359;28;20470;-81
2021/08/01 07:03:27;;;;;;;2.50;2.30;;;19.90;1.00;;;;;;4988999;28;20466;-82
2021/08/01 07:05:57;;;;;;;2.53;2.33;;;20.00;1.00;;;;;;4971900;28;20455;-81
2021/08/01 07:08:25;;;;;;;9.03;2.17;;;20.10;1.00;;;;;;4974400;28;20513;-83
2021/08/01 07:10:53;;;;;;;2.50;2.30;;;20.10;1.00;;;;;;4970964;28;20517;-81
2021/08/01 07:13:21;;;;;;;2.10;1.97;;;20.10;1.00;;;;;;4986065;28;20451;-83
2021/08/01 07:15:51;;;;;;;3.87;2.60;;;20.10;1.00;;;;;;4973312;28;20471;-82
2021/08/01 07:18:19;;;;;;;2.53;2.33;;;20.10;1.00;;;;;;4973352;28;20443;-82
2021/08/01 07:20:47;;;;;;;2.50;2.23;;;20.10;1.00;;;;;;4973768;28;20479;-82
2021/08/01 07:23:16;;;;;;;3.60;2.70;;;20.10;1.00;;;;;;4970503;28;20970;-81
2021/08/01 07:25:44;;;;;;;2.17;1.97;;;20.10;1.00;;;;;;4972672;28;20448;-81
2021/08/01 07:28:12;;;;;;;2.63;1.90;;;20.10;1.00;;;;;;4986582;28;20465;-82
2021/08/01 07:30:40;;;;;;;2.73;2.03;;;20.10;1.00;;;;;;4986209;28;21057;-81
2021/08/01 07:33:09;;;;;;;2.13;1.97;;;20.10;99.90;;;;;;4972064;28;20514;-81
2021/08/01 07:35:37;;;;;;;2.77;2.47;;;20.10;1.00;;;;;;4970833;28;20455;-82
2021/08/01 07:38:06;;;;;;;3.33;2.00;;;20.10;1.00;;;;;;4970780;28;20530;-81
2021/08/01 07:40:34;;;;;;;3.23;2.57;;;20.10;1.00;;;;;;4985367;28;20463;-82
2021/08/01 07:43:02;;;;;;;3.10;2.80;;;20.10;1.00;;;;;;4969453;28;20458;-83
2021/08/01 07:45:32;;;;;;;4.80;2.30;;;20.00;1.00;;;;;;4969705;28;20459;-83
2021/08/01 07:48:01;;;;;;;2.10;2.00;;;20.00;1.00;;;;;;4970114;28;20531;-83
2021/08/01 07:50:30;;;;;;;2.20;2.00;;;19.90;1.00;;;;;;4982696;28;20506;-84
2021/08/01 07:52:58;;;;;;;2.23;2.00;;;19.80;1.00;;;;;;4965412;28;20474;-84
2021/08/01 07:55:27;;;;;;;2.80;2.60;;;19.80;99.90;;;;;;4964854;28;20459;-84
2021/08/01 07:57:56;;;;;;;8.50;3.10;;;19.70;99.90;;;;;;4979828;28;20484;-83
2021/08/01 08:00:24;;;;;;;5.10;2.50;;;19.70;99.90;;;;;;4969847;28;20521;-84
2021/08/01 08:02:52;;;;;;;3.90;2.53;;;19.60;99.90;;;;;;4967367;28;20447;-84
2021/08/01 08:05:20;;;;;;;2.00;1.90;;;19.50;90.90;;;;;;4964509;28;20494;-84
2021/08/01 08:07:50;;;;;;;3.33;2.43;;;19.50;84.30;;;;;;4966883;28;20513;-83
2021/08/01 08:10:18;;;;;;;3.90;3.27;;;19.50;99.90;;;;;;4961955;28;20529;-83
2021/08/01 08:12:46;;;;;;;2.67;2.23;;;19.50;1.00;;;;;;4968066;28;20451;-84
2021/08/01 08:15:16;;;;;;;5.57;2.50;;;19.60;99.90;;;;;;4970973;28;20549;-83
2021/08/01 08:17:44;;;;;;;2.73;2.10;;;19.60;1.00;;;;;;4970159;28;21049;-84
2021/08/01 08:20:13;;;;;;;2.90;2.10;;;19.50;1.00;;;;;;4974881;28;20480;-84
2021/08/01 08:22:42;;;;;;;4.57;2.23;;;19.60;1.00;;;;;;4973921;28;20447;-83
2021/08/01 08:25:12;;;;;;;2.60;2.40;;;19.60;99.90;;;;;;4976375;28;20982;-82
2021/08/01 08:27:40;;;;;;;1.83;1.73;;;19.80;80.20;;;;;;4970788;28;21063;-84
2021/08/01 08:30:10;;;;;;;2.50;2.40;;;19.80;51.50;;;;;;4971527;28;20478;-84
2021/08/01 08:32:38;;;;;;;2.67;2.20;;;19.70;1.00;;;;;;4978046;28;20553;-84
2021/08/01 08:35:08;;;;;;;2.37;2.17;;;19.60;1.00;;;;;;4975615;28;20467;-84
2021/08/01 08:37:47;;;;;;;2.03;1.77;;;19.50;1.00;;;;;;4986583;28;20454;-84
2021/08/01 08:40:21;;;;;;;3.50;1.97;;;19.50;1.00;;;;;;4983369;28;20506;-84
2021/08/01 08:42:50;;;;;;;2.40;2.20;;;19.50;1.00;;;;;;4980135;28;20458;-84
2021/08/01 08:45:19;;;;;;;2.00;1.90;;;19.50;99.90;;;;;;4974240;28;20977;-83
2021/08/01 08:47:49;;;;;;;2.50;2.30;;;19.70;99.90;;;;;;4974786;28;20479;-84
2021/08/01 08:50:19;;;;;;;1.77;1.67;;;19.70;99.90;;;;;;4987950;28;20720;-84
2021/08/01 08:52:50;;;;;;;2.17;2.07;;;19.90;99.90;;;;;;4974148;28;20681;-83
2021/08/01 08:55:22;;;;;;;2.10;1.97;;;19.90;99.90;;;;;;4990292;28;20469;-84
2021/08/01 08:57:53;;;;;;;4.80;2.37;;;19.90;11.30;;;;;;4967533;28;20461;-83
2021/08/01 09:00:22;;;;;;;2.50;1.97;;;19.90;1.00;;;;;;4974557;28;20486;-83
2021/08/01 09:02:51;;;;;;;3.07;1.70;;;20.00;1.00;;;;;;4973445;28;20458;-84
2021/08/01 09:05:19;;;;;;;1.70;1.60;;;19.90;1.00;;;;;;4987010;28;20980;-84
2021/08/01 09:07:47;;;;;;;2.20;2.00;;;19.90;1.00;;;;;;4979232;28;20509;-84
2021/08/01 09:10:16;;;;;;;2.30;2.10;;;19.80;1.00;;;;;;4975124;28;21021;-84
2021/08/01 09:12:46;;;;;;;1.60;1.50;;;19.70;1.00;;;;;;4991582;28;20481;-83
2021/08/01 09:15:17;;;;;;;1.67;1.57;;;19.70;99.90;;;;;;4977939;28;20968;-82
2021/08/01 09:17:46;;;;;;;2.50;1.50;;;19.60;99.90;;;;;;4974368;28;20451;-83
2021/08/01 09:20:17;;;;;;;4.43;1.80;;;19.70;1.00;;;;;;4974379;28;20482;-83
2021/08/01 09:23:08;;;;;;;2.23;1.80;;;19.70;99.90;;;;;;4977223;28;20467;-83
2021/08/01 09:25:38;;;;;;;1.87;1.77;;;19.70;99.90;;;;;;4977691;28;20465;-83
2021/08/01 09:28:10;;;;;;;1.93;1.80;;;19.60;99.90;;;;;;4974176;28;20470;-84
2021/08/01 09:30:44;;;;;;;1.93;1.73;;;19.60;99.90;;;;;;4975911;28;21095;-83
2021/08/01 09:33:12;;;;;;;2.00;1.90;;;19.60;1.00;;;;;;4974565;28;20487;-83
2021/08/01 09:35:40;;;;;;;2.13;1.80;;;19.60;99.90;;;;;;4975197;28;20994;-83
2021/08/01 09:38:08;;;;;;;5.90;2.20;;;19.60;1.00;;;;;;4983307;28;20451;-83
2021/08/01 09:40:36;;;;;;;3.73;2.03;;;19.70;1.00;;;;;;4977266;28;20668;-84
2021/08/01 09:43:10;;;;;;;1.70;1.60;;;19.80;1.00;;;;;;4972474;28;20451;-83
2021/08/01 09:45:39;;;;;;;2.00;1.90;;;19.80;1.00;;;;;;4988777;28;21030;-83
2021/08/01 09:48:16;;;;;;;1.63;1.53;;;19.70;99.90;;;;;;4971269;28;20454;-84
2021/08/01 09:50:58;;;;;;;2.10;1.80;;;19.70;99.90;;;;;;4973700;28;20537;-84
2021/08/01 09:53:28;;;;;;;3.50;1.90;;;19.70;99.90;;;;;;4982553;28;20489;-83
2021/08/01 09:56:16;;;;;;;1.80;1.70;;;19.70;99.90;;;;;;4970619;28;20510;-83
2021/08/01 09:58:47;;;;;;;3.60;2.23;;;19.70;1.00;;;;;;4965254;28;20451;-83
2021/08/01 10:01:15;;;;;;;2.37;2.10;;;19.70;99.90;;;;;;4971032;28;20486;-83
2021/08/01 10:03:45;;;;;;;1.87;1.73;;;19.70;1.00;;;;;;4971153;28;20898;-83
2021/08/01 10:06:15;;;;;;;3.00;1.83;;;19.90;1.00;;;;;;4970455;28;20823;-82
2021/08/01 10:08:44;;;;;;;3.50;2.27;;;19.80;99.90;;;;;;4969584;28;20482;-82
2021/08/01 10:11:17;;;;;;;2.07;1.93;;;19.70;1.00;;;;;;4972491;28;21037;-83
2021/08/01 10:13:48;;;;;;;2.60;2.07;;;19.60;99.90;;;;;;4971224;28;20848;-82
2021/08/01 10:16:17;;;;;;;3.40;2.50;;;19.70;1.00;;;;;;4968548;28;20455;-83
2021/08/01 10:18:46;;;;;;;4.60;2.23;;;19.80;1.00;;;;;;4988191;28;20466;-83
2021/08/01 10:21:18;;;;;;;3.00;2.27;;;19.90;99.90;;;;;;4988109;28;20836;-83
2021/08/01 10:23:48;;;;;;;2.40;2.20;;;19.90;17.40;;;;;;4973068;28;20455;-84
2021/08/01 10:26:20;;;;;;;3.93;3.53;;;20.10;1.00;;;;;;4971565;28;20447;-82
2021/08/01 10:28:53;;;;;;;2.70;2.50;;;20.10;99.90;;;;;;4971645;28;20459;-83
2021/08/01 10:31:28;;;;;;;5.40;4.07;;;20.10;1.00;;;;;;4969151;28;20576;-84
2021/08/01 10:34:04;;;;;;;3.67;3.20;;;20.10;1.00;;;;;;4971137;28;20809;-85
2021/08/01 10:36:33;;;;;;;6.77;4.90;;;20.10;99.90;;;;;;4965963;28;20537;-84
2021/08/01 10:39:05;;;;;;;3.70;3.40;;;20.30;99.90;;;;;;4984015;28;20990;-84
2021/08/01 10:41:35;;;;;;;3.07;2.87;;;20.20;99.90;;;;;;4968347;28;20486;-83
2021/08/01 10:44:10;;;;;;;3.20;2.90;;;20.10;99.90;;;;;;4971479;28;20462;-84
2021/08/01 10:46:40;;;;;;;3.10;2.73;;;20.00;99.90;;;;;;4967480;28;20451;-84
2021/08/01 10:49:10;;;;;;;2.50;2.30;;;20.00;1.00;;;;;;4981695;28;20923;-84
2021/08/01 10:51:39;;;;;;;4.23;3.10;;;20.00;99.90;;;;;;4968782;28;20607;-84
2021/08/01 10:54:32;;;;;;;3.10;2.90;;;19.90;1.00;;;;;;4969292;28;20561;-86
2021/08/01 10:57:16;;;;;;;2.90;2.70;;;19.90;1.00;;;;;;4984765;28;20546;-84
2021/08/01 11:00:09;;;;;;;4.40;4.00;;;20.20;99.90;;;;;;4981091;28;20463;-82
2021/08/01 11:02:38;;;;;;;4.00;3.53;;;20.30;99.90;;;;;;4969875;28;20459;-83
2021/08/01 11:05:36;;;;;;;4.60;2.97;;;20.40;99.90;;;;;;4966447;28;20455;-84
2021/08/01 11:08:06;;;;;;;3.27;3.07;;;20.20;99.90;;;;;;4969966;28;20534;-83
2021/08/01 11:10:35;;;;;;;3.00;2.50;;;20.10;99.90;;;;;;4970737;28;21072;-82
2021/08/01 11:13:38;;;;;;;4.80;3.20;;;20.10;99.90;;;;;;4971507;28;20492;-83
2021/08/01 11:16:10;;;;;;;3.00;2.40;;;20.10;99.90;;;;;;4969430;28;20469;-83
2021/08/01 11:18:40;;;;;;;4.50;2.70;;;20.10;99.90;;;;;;4969832;28;20455;-84
2021/08/01 11:21:10;;;;;;;2.70;2.27;;;20.10;1.00;;;;;;4973409;28;20486;-84
2021/08/01 11:24:10;;;;;;;2.97;2.73;;;20.20;1.00;;;;;;4970231;28;20459;-85
2021/08/01 11:27:12;;;;;;;3.43;2.60;;;20.30;99.90;;;;;;4970302;28;20455;-83
2021/08/01 11:30:01;;;;;;;3.30;2.87;;;20.50;99.90;;;;;;4974873;28;20461;-83
2021/08/01 11:32:50;;;;;;;3.50;2.67;;;20.50;99.90;;;;;;4964202;28;20484;-83
2021/08/01 11:35:21;;;;;;;3.27;2.47;;;20.60;99.90;;;;;;4966147;28;20915;-84
2021/08/01 11:38:07;;;;;;;3.07;2.70;;;20.50;2.40;;;;;;4986447;28;20459;-79
2021/08/01 11:40:46;;;;;;;5.30;2.43;;;20.40;38.20;;;;;;4968297;28;20458;-81
2021/08/01 11:43:14;;;;;;;2.70;2.50;;;20.50;99.90;;;;;;4972744;28;20447;-79
2021/08/01 11:46:02;;;;;;;2.80;2.27;;;20.60;1.00;;;;;;4970533;28;20457;-80
2021/08/01 11:48:32;;;;;;;3.63;2.33;;;20.80;1.00;;;;;;4972755;28;20455;-82
2021/08/01 11:51:06;;;;;;;2.60;2.40;;;20.80;1.00;;;;;;4985680;28;20538;-82
2021/08/01 11:53:35;;;;;;;7.80;2.83;;;20.90;1.00;;;;;;4972662;28;20885;-81
2021/08/01 11:56:03;;;;;;;3.03;2.50;;;20.90;1.00;;;;;;4972911;28;20458;-82
2021/08/01 11:58:32;;;;;;;3.00;2.37;;;20.80;1.00;;;;;;4971352;28;21069;-82
2021/08/01 12:01:00;;;;;;;2.93;2.63;;;20.90;1.00;;;;;;4971451;28;20997;-79
2021/08/01 12:03:32;;;;;;;3.30;3.00;;;21.00;1.00;;;;;;4974735;28;20486;-80
2021/08/01 12:06:00;;;;;;;2.80;2.37;;;21.00;1.00;;;;;;4973222;28;20451;-82
2021/08/01 12:08:29;;;;;;;3.40;3.10;;;21.10;1.00;;;;;;4975086;28;20451;-81
2021/08/01 12:11:08;;;;;;;7.63;3.67;;;21.20;1.00;;;;;;4973902;28;20474;-82
2021/08/01 12:13:37;;;;;;;3.27;2.80;;;21.30;1.00;;;;;;4975041;28;20475;-83
2021/08/01 12:16:16;;;;;;;3.40;2.37;;;21.20;1.00;;;;;;4974018;28;20532;-80
2021/08/01 12:18:46;;;;;;;2.33;2.13;;;21.30;1.00;;;;;;4977219;28;20531;-81
2021/08/01 12:21:34;;;;;;;2.50;2.30;;;21.40;1.00;;;;;;4973964;28;20473;-81
2021/08/01 12:24:05;;;;;;;2.60;2.37;;;21.50;1.00;;;;;;4973830;28;20969;-81
2021/08/01 12:26:38;;;;;;;2.50;2.30;;;21.50;1.00;;;;;;4972254;28;20462;-80
2021/08/01 12:29:07;;;;;;;2.63;2.43;;;21.60;1.00;;;;;;4973798;28;20450;-80
2021/08/01 12:31:35;;;;;;;5.13;2.80;;;21.60;1.00;;;;;;4970842;28;20497;-81
2021/08/01 12:34:04;;;;;;;3.00;2.77;;;21.50;1.00;;;;;;4965016;28;20533;-79
2021/08/01 12:36:33;;;;;;;2.70;2.37;;;21.40;1.00;;;;;;4967396;28;20466;-80
2021/08/01 12:39:06;;;;;;;2.17;2.07;;;21.40;1.00;;;;;;4983818;28;20466;-80
2021/08/01 12:41:39;;;;;;;1.80;1.70;;;21.40;1.00;;;;;;4967790;28;20555;-80
2021/08/01 12:44:14;;;;;;;1.90;1.80;;;21.40;1.00;;;;;;4964951;28;20966;-77
2021/08/01 12:46:43;;;;;;;3.63;2.37;;;21.60;1.00;;;;;;4966259;28;20644;-81
2021/08/01 12:49:13;;;;;;;1.93;1.83;;;21.70;1.00;;;;;;4982470;28;20463;-79
2021/08/01 12:51:43;;;;;;;2.77;1.60;;;21.70;99.90;;;;;;4966151;28;20489;-78
2021/08/01 12:54:12;;;;;;;2.07;1.97;;;21.70;99.90;;;;;;4968614;28;20490;-78
2021/08/01 12:57:06;;;;;;;2.87;1.97;;;21.80;99.90;;;;;;4967743;28;20554;-79
2021/08/01 12:59:35;;;;;;;2.20;1.87;;;21.90;99.90;;;;;;4968101;28;20458;-79
2021/08/01 13:02:04;;;;;;;2.40;2.20;;;21.90;1.00;;;;;;4968942;28;20459;-78
2021/08/01 13:04:44;;;;;;;2.53;2.33;;;22.00;1.00;;;;;;4969446;28;20498;-78
2021/08/01 13:07:13;;;;;;;2.90;2.70;;;22.00;1.00;;;;;;4967339;28;20977;-79
2021/08/01 13:09:41;;;;;;;4.93;2.77;;;22.00;1.00;;;;;;4980958;28;20467;-82
2021/08/01 13:12:16;;;;;;;4.17;2.27;;;22.00;1.00;;;;;;4966445;28;20807;-81
2021/08/01 13:14:45;;;;;;;2.53;2.23;;;22.10;1.00;;;;;;4983880;28;20503;-77